sensor_id;sensor_type;location;lat;lon;timestamp;temperature;humidity
70366;DHT22;57787;48.216;12.396;2023-09-19T00:01:00;15.80;89.40
70366;DHT22;57787;48.216;12.396;2023-09-19T00:03:27;15.80;89.50
70366;DHT22;57787;48.216;12.396;2023-09-19T00:05:55;15.80;89.50
70366;DHT22;57787;48.216;12.396;2023-09-19T00:08:24;15.80;89.40
70366;DHT22;57787;48.216;12.396;2023-09-19T00:10:51;15.70;89.50
70366;DHT22;57787;48.216;12.396;2023-09-19T00:13:17;15.70;89.70
70366;DHT22;57787;48.216;12.396;2023-09-19T00:15:46;15.60;89.80
70366;DHT22;57787;48.216;12.396;2023-09-19T00:18:17;15.60;90.00
70366;DHT22;57787;48.216;12.396;2023-09-19T00:20:45;15.60;90.10
70366;DHT22;57787;48.216;12.396;2023-09-19T00:23:16;15.50;90.10
70366;DHT22;57787;48.216;12.396;2023-09-19T00:25:44;15.50;90.10
70366;DHT22;57787;48.216;12.396;2023-09-19T00:28:12;15.60;90.00
70366;DHT22;57787;48.216;12.396;2023-09-19T00:30:42;15.50;90.00
70366;DHT22;57787;48.216;12.396;2023-09-19T00:33:08;15.60;89.70
70366;DHT22;57787;48.216;12.396;2023-09-19T00:35:38;15.60;89.70
70366;DHT22;57787;48.216;12.396;2023-09-19T00:38:04;15.60;89.60
70366;DHT22;57787;48.216;12.396;2023-09-19T00:40:33;15.70;89.50
70366;DHT22;57787;48.216;12.396;2023-09-19T00:43:00;15.70;89.50
70366;DHT22;57787;48.216;12.396;2023-09-19T00:45:27;15.70;89.70
70366;DHT22;57787;48.216;12.396;2023-09-19T00:47:55;15.70;89.60
70366;DHT22;57787;48.216;12.396;2023-09-19T00:50:24;15.70;89.60
70366;DHT22;57787;48.216;12.396;2023-09-19T00:52:53;15.70;89.50
70366;DHT22;57787;48.216;12.396;2023-09-19T00:55:22;15.70;89.70
70366;DHT22;57787;48.216;12.396;2023-09-19T00:57:50;15.70;89.70
70366;DHT22;57787;48.216;12.396;2023-09-19T01:00:17;15.70;89.80
70366;DHT22;57787;48.216;12.396;2023-09-19T01:02:46;15.80;89.80
70366;DHT22;57787;48.216;12.396;2023-09-19T01:05:13;15.80;89.70
70366;DHT22;57787;48.216;12.396;2023-09-19T01:07:40;15.80;89.70
70366;DHT22;57787;48.216;12.396;2023-09-19T01:10:14;15.80;89.50
70366;DHT22;57787;48.216;12.396;2023-09-19T01:26:05;15.80;89.40
70366;DHT22;57787;48.216;12.396;2023-09-19T01:29:01;15.90;89.30
70366;DHT22;57787;48.216;12.396;2023-09-19T01:31:33;15.90;89.30
70366;DHT22;57787;48.216;12.396;2023-09-19T01:34:04;15.80;89.20
70366;DHT22;57787;48.216;12.396;2023-09-19T01:36:32;15.90;89.20
70366;DHT22;57787;48.216;12.396;2023-09-19T01:39:03;15.80;89.20
70366;DHT22;57787;48.216;12.396;2023-09-19T01:44:22;15.80;89.20
70366;DHT22;57787;48.216;12.396;2023-09-19T01:46:50;15.80;89.20
70366;DHT22;57787;48.216;12.396;2023-09-19T01:49:25;15.80;89.30
70366;DHT22;57787;48.216;12.396;2023-09-19T01:52:00;15.80;89.20
70366;DHT22;57787;48.216;12.396;2023-09-19T01:54:40;15.80;89.20
70366;DHT22;57787;48.216;12.396;2023-09-19T01:57:27;15.80;89.10
70366;DHT22;57787;48.216;12.396;2023-09-19T02:00:09;15.80;89.20
70366;DHT22;57787;48.216;12.396;2023-09-19T02:02:39;15.80;89.40
70366;DHT22;57787;48.216;12.396;2023-09-19T02:05:07;15.80;89.50
70366;DHT22;57787;48.216;12.396;2023-09-19T02:07:34;15.70;89.60
70366;DHT22;57787;48.216;12.396;2023-09-19T02:10:02;15.70;89.60
70366;DHT22;57787;48.216;12.396;2023-09-19T02:12:32;15.70;89.70
70366;DHT22;57787;48.216;12.396;2023-09-19T02:14:59;15.70;89.70
70366;DHT22;57787;48.216;12.396;2023-09-19T02:17:26;15.70;89.80
70366;DHT22;57787;48.216;12.396;2023-09-19T02:19:56;15.70;89.80
70366;DHT22;57787;48.216;12.396;2023-09-19T02:22:23;15.60;89.70
70366;DHT22;57787;48.216;12.396;2023-09-19T02:24:51;15.70;89.70
70366;DHT22;57787;48.216;12.396;2023-09-19T02:27:19;15.60;89.70
70366;DHT22;57787;48.216;12.396;2023-09-19T02:29:46;15.60;90.00
70366;DHT22;57787;48.216;12.396;2023-09-19T02:32:13;15.60;90.00
70366;DHT22;57787;48.216;12.396;2023-09-19T02:34:39;15.60;89.90
70366;DHT22;57787;48.216;12.396;2023-09-19T02:37:06;15.60;89.80
70366;DHT22;57787;48.216;12.396;2023-09-19T02:39:35;15.60;89.70
70366;DHT22;57787;48.216;12.396;2023-09-19T02:42:02;15.70;89.60
70366;DHT22;57787;48.216;12.396;2023-09-19T02:44:31;15.70;89.10
70366;DHT22;57787;48.216;12.396;2023-09-19T02:46:58;15.70;89.00
70366;DHT22;57787;48.216;12.396;2023-09-19T02:49:25;15.80;88.80
70366;DHT22;57787;48.216;12.396;2023-09-19T02:51:52;15.80;88.80
70366;DHT22;57787;48.216;12.396;2023-09-19T02:54:19;15.80;88.90
70366;DHT22;57787;48.216;12.396;2023-09-19T02:56:47;15.80;88.90
70366;DHT22;57787;48.216;12.396;2023-09-19T02:59:14;15.80;88.90
70366;DHT22;57787;48.216;12.396;2023-09-19T03:01:44;15.80;88.40
70366;DHT22;57787;48.216;12.396;2023-09-19T03:04:15;15.80;88.50
70366;DHT22;57787;48.216;12.396;2023-09-19T03:06:46;15.80;88.30
70366;DHT22;57787;48.216;12.396;2023-09-19T03:09:16;15.90;88.50
70366;DHT22;57787;48.216;12.396;2023-09-19T03:11:43;15.90;88.30
70366;DHT22;57787;48.216;12.396;2023-09-19T03:14:12;15.90;88.00
70366;DHT22;57787;48.216;12.396;2023-09-19T03:16:41;16.00;87.50
70366;DHT22;57787;48.216;12.396;2023-09-19T03:19:09;16.00;87.70
70366;DHT22;57787;48.216;12.396;2023-09-19T03:21:37;16.00;87.80
70366;DHT22;57787;48.216;12.396;2023-09-19T03:24:05;16.00;88.10
70366;DHT22;57787;48.216;12.396;2023-09-19T03:26:33;16.00;87.90
70366;DHT22;57787;48.216;12.396;2023-09-19T03:29:05;16.00;87.60
70366;DHT22;57787;48.216;12.396;2023-09-19T03:31:41;16.00;87.40
70366;DHT22;57787;48.216;12.396;2023-09-19T03:34:07;16.00;87.50
70366;DHT22;57787;48.216;12.396;2023-09-19T03:36:35;15.90;87.40
70366;DHT22;57787;48.216;12.396;2023-09-19T03:39:02;15.80;87.80
70366;DHT22;57787;48.216;12.396;2023-09-19T03:41:32;15.70;88.00
70366;DHT22;57787;48.216;12.396;2023-09-19T03:44:03;15.60;88.30
70366;DHT22;57787;48.216;12.396;2023-09-19T03:46:30;15.50;88.60
70366;DHT22;57787;48.216;12.396;2023-09-19T03:48:57;15.40;89.00
70366;DHT22;57787;48.216;12.396;2023-09-19T03:51:23;15.40;89.20
70366;DHT22;57787;48.216;12.396;2023-09-19T03:53:50;15.40;89.30
70366;DHT22;57787;48.216;12.396;2023-09-19T03:56:17;15.30;89.40
70366;DHT22;57787;48.216;12.396;2023-09-19T03:58:44;15.30;89.50
70366;DHT22;57787;48.216;12.396;2023-09-19T04:01:11;15.30;89.60
70366;DHT22;57787;48.216;12.396;2023-09-19T04:03:40;15.30;89.70
70366;DHT22;57787;48.216;12.396;2023-09-19T04:06:15;15.20;89.70
70366;DHT22;57787;48.216;12.396;2023-09-19T04:08:42;15.30;89.80
70366;DHT22;57787;48.216;12.396;2023-09-19T04:11:10;15.30;89.80
70366;DHT22;57787;48.216;12.396;2023-09-19T04:13:37;15.30;90.00
70366;DHT22;57787;48.216;12.396;2023-09-19T04:16:04;15.30;90.00
70366;DHT22;57787;48.216;12.396;2023-09-19T04:18:31;15.30;90.00
70366;DHT22;57787;48.216;12.396;2023-09-19T04:20:59;15.30;90.00
70366;DHT22;57787;48.216;12.396;2023-09-19T04:23:30;15.30;90.00
70366;DHT22;57787;48.216;12.396;2023-09-19T04:25:58;15.40;90.00
70366;DHT22;57787;48.216;12.396;2023-09-19T04:28:26;15.40;90.00
70366;DHT22;57787;48.216;12.396;2023-09-19T04:31:00;15.30;89.90
70366;DHT22;57787;48.216;12.396;2023-09-19T04:33:27;15.30;89.80
70366;DHT22;57787;48.216;12.396;2023-09-19T04:35:54;15.30;89.80
70366;DHT22;57787;48.216;12.396;2023-09-19T04:38:22;15.30;89.80
70366;DHT22;57787;48.216;12.396;2023-09-19T04:40:50;15.20;89.80
70366;DHT22;57787;48.216;12.396;2023-09-19T04:43:23;15.20;89.90
70366;DHT22;57787;48.216;12.396;2023-09-19T04:45:51;15.20;90.00
70366;DHT22;57787;48.216;12.396;2023-09-19T04:48:22;15.10;89.90
70366;DHT22;57787;48.216;12.396;2023-09-19T04:50:51;15.10;90.00
70366;DHT22;57787;48.216;12.396;2023-09-19T04:53:19;15.10;90.00
70366;DHT22;57787;48.216;12.396;2023-09-19T04:55:53;15.10;90.10
70366;DHT22;57787;48.216;12.396;2023-09-19T04:58:23;15.20;90.10
70366;DHT22;57787;48.216;12.396;2023-09-19T05:00:57;15.20;90.10
70366;DHT22;57787;48.216;12.396;2023-09-19T05:03:23;15.20;90.10
70366;DHT22;57787;48.216;12.396;2023-09-19T05:05:50;15.30;90.00
70366;DHT22;57787;48.216;12.396;2023-09-19T05:08:17;15.30;90.10
70366;DHT22;57787;48.216;12.396;2023-09-19T05:10:44;15.30;90.00
70366;DHT22;57787;48.216;12.396;2023-09-19T05:13:17;15.30;90.00
70366;DHT22;57787;48.216;12.396;2023-09-19T05:15:47;15.30;89.90
70366;DHT22;57787;48.216;12.396;2023-09-19T05:18:18;15.40;89.90
70366;DHT22;57787;48.216;12.396;2023-09-19T05:20:48;15.40;89.90
70366;DHT22;57787;48.216;12.396;2023-09-19T05:23:16;15.40;89.80
70366;DHT22;57787;48.216;12.396;2023-09-19T05:25:43;15.50;89.70
70366;DHT22;57787;48.216;12.396;2023-09-19T05:28:10;15.60;89.70
70366;DHT22;57787;48.216;12.396;2023-09-19T05:30:42;15.60;89.50
70366;DHT22;57787;48.216;12.396;2023-09-19T05:33:14;15.70;89.20
70366;DHT22;57787;48.216;12.396;2023-09-19T05:35:43;15.70;88.90
70366;DHT22;57787;48.216;12.396;2023-09-19T05:38:13;15.80;88.80
70366;DHT22;57787;48.216;12.396;2023-09-19T05:40:40;16.00;88.70
70366;DHT22;57787;48.216;12.396;2023-09-19T05:43:12;16.10;88.80
70366;DHT22;57787;48.216;12.396;2023-09-19T05:45:40;16.20;88.10
70366;DHT22;57787;48.216;12.396;2023-09-19T05:48:08;16.40;87.80
70366;DHT22;57787;48.216;12.396;2023-09-19T05:50:38;16.50;87.60
70366;DHT22;57787;48.216;12.396;2023-09-19T05:53:05;16.60;87.60
70366;DHT22;57787;48.216;12.396;2023-09-19T05:55:33;16.70;87.20
70366;DHT22;57787;48.216;12.396;2023-09-19T05:57:59;16.60;86.50
70366;DHT22;57787;48.216;12.396;2023-09-19T06:00:26;16.70;86.20
70366;DHT22;57787;48.216;12.396;2023-09-19T06:02:57;16.80;86.50
70366;DHT22;57787;48.216;12.396;2023-09-19T06:05:24;16.80;86.50
70366;DHT22;57787;48.216;12.396;2023-09-19T06:07:53;16.90;86.20
70366;DHT22;57787;48.216;12.396;2023-09-19T06:10:20;16.90;85.70
70366;DHT22;57787;48.216;12.396;2023-09-19T06:12:49;17.00;86.10
70366;DHT22;57787;48.216;12.396;2023-09-19T06:15:16;17.20;86.10
70366;DHT22;57787;48.216;12.396;2023-09-19T06:17:46;17.40;86.50
70366;DHT22;57787;48.216;12.396;2023-09-19T06:20:14;17.70;85.50
70366;DHT22;57787;48.216;12.396;2023-09-19T06:22:41;18.00;84.90
70366;DHT22;57787;48.216;12.396;2023-09-19T06:25:11;18.20;83.80
70366;DHT22;57787;48.216;12.396;2023-09-19T06:27:38;18.40;83.40
70366;DHT22;57787;48.216;12.396;2023-09-19T06:30:09;18.60;82.20
70366;DHT22;57787;48.216;12.396;2023-09-19T06:32:36;18.70;80.80
70366;DHT22;57787;48.216;12.396;2023-09-19T06:35:07;18.80;81.20
70366;DHT22;57787;48.216;12.396;2023-09-19T06:37:35;18.90;80.20
70366;DHT22;57787;48.216;12.396;2023-09-19T06:40:02;19.10;79.70
70366;DHT22;57787;48.216;12.396;2023-09-19T06:42:29;19.20;77.90
70366;DHT22;57787;48.216;12.396;2023-09-19T06:44:56;19.30;77.60
70366;DHT22;57787;48.216;12.396;2023-09-19T06:47:26;19.20;77.40
70366;DHT22;57787;48.216;12.396;2023-09-19T06:49:53;19.10;77.70
70366;DHT22;57787;48.216;12.396;2023-09-19T06:52:21;19.10;77.90
70366;DHT22;57787;48.216;12.396;2023-09-19T06:54:51;19.00;77.30
70366;DHT22;57787;48.216;12.396;2023-09-19T06:57:19;19.00;77.40
70366;DHT22;57787;48.216;12.396;2023-09-19T06:59:46;19.10;77.10
70366;DHT22;57787;48.216;12.396;2023-09-19T07:02:13;19.20;77.50
70366;DHT22;57787;48.216;12.396;2023-09-19T07:04:40;19.20;76.80
70366;DHT22;57787;48.216;12.396;2023-09-19T07:07:07;19.20;76.50
70366;DHT22;57787;48.216;12.396;2023-09-19T07:09:39;19.30;76.50
70366;DHT22;57787;48.216;12.396;2023-09-19T07:12:06;19.30;76.10
70366;DHT22;57787;48.216;12.396;2023-09-19T07:14:33;19.30;75.40
70366;DHT22;57787;48.216;12.396;2023-09-19T07:16:59;19.20;76.30
70366;DHT22;57787;48.216;12.396;2023-09-19T07:19:26;19.20;76.70
70366;DHT22;57787;48.216;12.396;2023-09-19T07:21:58;19.20;76.30
70366;DHT22;57787;48.216;12.396;2023-09-19T07:24:26;19.30;76.70
70366;DHT22;57787;48.216;12.396;2023-09-19T07:26:55;19.50;76.00
70366;DHT22;57787;48.216;12.396;2023-09-19T07:29:22;19.70;76.30
70366;DHT22;57787;48.216;12.396;2023-09-19T07:31:49;19.90;76.10
70366;DHT22;57787;48.216;12.396;2023-09-19T07:34:16;20.20;75.40
70366;DHT22;57787;48.216;12.396;2023-09-19T07:36:45;20.30;74.00
70366;DHT22;57787;48.216;12.396;2023-09-19T07:39:13;20.50;74.00
70366;DHT22;57787;48.216;12.396;2023-09-19T07:41:49;20.70;72.60
70366;DHT22;57787;48.216;12.396;2023-09-19T07:44:16;20.80;72.10
70366;DHT22;57787;48.216;12.396;2023-09-19T07:46:44;21.00;72.50
70366;DHT22;57787;48.216;12.396;2023-09-19T07:49:11;21.20;72.00
70366;DHT22;57787;48.216;12.396;2023-09-19T07:51:38;21.40;70.20
70366;DHT22;57787;48.216;12.396;2023-09-19T07:54:06;21.70;69.50
70366;DHT22;57787;48.216;12.396;2023-09-19T07:56:33;21.90;68.10
70366;DHT22;57787;48.216;12.396;2023-09-19T07:59:00;22.00;68.20
70366;DHT22;57787;48.216;12.396;2023-09-19T08:01:27;22.00;68.20
70366;DHT22;57787;48.216;12.396;2023-09-19T08:03:54;22.00;65.90
70366;DHT22;57787;48.216;12.396;2023-09-19T08:06:21;21.90;66.00
70366;DHT22;57787;48.216;12.396;2023-09-19T08:08:50;21.80;67.70
70366;DHT22;57787;48.216;12.396;2023-09-19T08:11:17;21.70;66.00
70366;DHT22;57787;48.216;12.396;2023-09-19T08:13:47;21.70;65.80
70366;DHT22;57787;48.216;12.396;2023-09-19T08:16:16;21.70;65.70
70366;DHT22;57787;48.216;12.396;2023-09-19T08:18:48;21.80;63.20
70366;DHT22;57787;48.216;12.396;2023-09-19T08:21:15;22.00;67.90
70366;DHT22;57787;48.216;12.396;2023-09-19T08:23:43;22.20;65.40
70366;DHT22;57787;48.216;12.396;2023-09-19T08:26:11;22.30;66.20
70366;DHT22;57787;48.216;12.396;2023-09-19T08:28:38;22.30;64.80
70366;DHT22;57787;48.216;12.396;2023-09-19T08:31:08;22.30;64.20
70366;DHT22;57787;48.216;12.396;2023-09-19T08:33:36;22.60;63.80
70366;DHT22;57787;48.216;12.396;2023-09-19T08:36:03;22.80;63.00
70366;DHT22;57787;48.216;12.396;2023-09-19T08:38:34;22.90;63.20
70366;DHT22;57787;48.216;12.396;2023-09-19T08:41:04;23.00;62.10
70366;DHT22;57787;48.216;12.396;2023-09-19T08:43:32;23.30;60.60
70366;DHT22;57787;48.216;12.396;2023-09-19T08:46:08;23.60;62.50
70366;DHT22;57787;48.216;12.396;2023-09-19T08:48:39;23.90;60.40
70366;DHT22;57787;48.216;12.396;2023-09-19T08:51:06;23.80;60.10
70366;DHT22;57787;48.216;12.396;2023-09-19T08:53:36;23.90;59.70
70366;DHT22;57787;48.216;12.396;2023-09-19T08:56:09;23.90;57.30
70366;DHT22;57787;48.216;12.396;2023-09-19T08:58:46;24.10;59.30
70366;DHT22;57787;48.216;12.396;2023-09-19T09:01:16;24.30;58.70
70366;DHT22;57787;48.216;12.396;2023-09-19T09:03:49;24.30;59.10
70366;DHT22;57787;48.216;12.396;2023-09-19T09:06:19;24.50;59.70
70366;DHT22;57787;48.216;12.396;2023-09-19T09:08:50;24.50;56.60
70366;DHT22;57787;48.216;12.396;2023-09-19T09:11:17;24.80;57.50
70366;DHT22;57787;48.216;12.396;2023-09-19T09:13:47;24.80;58.30
70366;DHT22;57787;48.216;12.396;2023-09-19T09:16:16;24.60;57.40
70366;DHT22;57787;48.216;12.396;2023-09-19T09:18:46;24.40;59.90
70366;DHT22;57787;48.216;12.396;2023-09-19T09:21:20;24.30;60.70
70366;DHT22;57787;48.216;12.396;2023-09-19T09:23:50;24.30;59.70
70366;DHT22;57787;48.216;12.396;2023-09-19T09:34:49;24.30;57.70
70366;DHT22;57787;48.216;12.396;2023-09-19T09:37:17;24.40;59.80
70366;DHT22;57787;48.216;12.396;2023-09-19T09:39:50;24.70;56.80
70366;DHT22;57787;48.216;12.396;2023-09-19T09:42:31;24.60;55.60
70366;DHT22;57787;48.216;12.396;2023-09-19T09:45:15;24.50;57.90
70366;DHT22;57787;48.216;12.396;2023-09-19T09:47:46;24.30;56.30
70366;DHT22;57787;48.216;12.396;2023-09-19T09:50:24;24.00;57.70
70366;DHT22;57787;48.216;12.396;2023-09-19T09:52:58;23.70;57.90
70366;DHT22;57787;48.216;12.396;2023-09-19T09:58:21;23.50;60.40
70366;DHT22;57787;48.216;12.396;2023-09-19T10:00:52;23.30;58.00
70366;DHT22;57787;48.216;12.396;2023-09-19T10:03:33;23.10;60.80
70366;DHT22;57787;48.216;12.396;2023-09-19T10:06:06;22.90;58.20
70366;DHT22;57787;48.216;12.396;2023-09-19T10:11:28;23.10;61.60
70366;DHT22;57787;48.216;12.396;2023-09-19T10:13:58;23.30;62.20
70366;DHT22;57787;48.216;12.396;2023-09-19T10:16:30;23.40;61.60
70366;DHT22;57787;48.216;12.396;2023-09-19T10:19:01;23.50;62.80
70366;DHT22;57787;48.216;12.396;2023-09-19T10:21:31;23.50;61.30
70366;DHT22;57787;48.216;12.396;2023-09-19T10:24:05;23.40;61.30
70366;DHT22;57787;48.216;12.396;2023-09-19T10:26:36;23.70;59.70
70366;DHT22;57787;48.216;12.396;2023-09-19T10:29:03;23.70;59.00
70366;DHT22;57787;48.216;12.396;2023-09-19T10:31:34;23.60;60.70
70366;DHT22;57787;48.216;12.396;2023-09-19T10:34:02;23.60;62.10
70366;DHT22;57787;48.216;12.396;2023-09-19T10:36:29;23.60;61.40
70366;DHT22;57787;48.216;12.396;2023-09-19T10:38:58;23.80;60.20
70366;DHT22;57787;48.216;12.396;2023-09-19T10:41:30;24.30;60.40
70366;DHT22;57787;48.216;12.396;2023-09-19T10:44:03;24.80;58.20
70366;DHT22;57787;48.216;12.396;2023-09-19T10:46:31;25.10;57.60
70366;DHT22;57787;48.216;12.396;2023-09-19T10:49:02;25.20;54.70
70366;DHT22;57787;48.216;12.396;2023-09-19T10:51:30;25.30;55.40
70366;DHT22;57787;48.216;12.396;2023-09-19T10:54:02;25.50;54.40
70366;DHT22;57787;48.216;12.396;2023-09-19T10:56:34;25.50;52.50
70366;DHT22;57787;48.216;12.396;2023-09-19T10:59:11;25.60;53.40
70366;DHT22;57787;48.216;12.396;2023-09-19T11:01:43;25.80;52.60
70366;DHT22;57787;48.216;12.396;2023-09-19T11:04:30;26.00;52.40
70366;DHT22;57787;48.216;12.396;2023-09-19T11:07:03;26.10;54.70
70366;DHT22;57787;48.216;12.396;2023-09-19T11:09:44;26.10;52.20
70366;DHT22;57787;48.216;12.396;2023-09-19T11:12:58;26.20;54.00
70366;DHT22;57787;48.216;12.396;2023-09-19T11:15:05;26.40;54.20
70366;DHT22;57787;48.216;12.396;2023-09-19T11:17:43;26.70;53.80
70366;DHT22;57787;48.216;12.396;2023-09-19T11:30:48;26.70;50.80
70366;DHT22;57787;48.216;12.396;2023-09-19T11:33:30;26.80;47.60
70366;DHT22;57787;48.216;12.396;2023-09-19T11:38:56;27.80;49.60
70366;DHT22;57787;48.216;12.396;2023-09-19T11:43:53;28.30;46.00
70366;DHT22;57787;48.216;12.396;2023-09-19T11:46:24;27.90;46.60
70366;DHT22;57787;48.216;12.396;2023-09-19T11:48:51;27.20;47.10
70366;DHT22;57787;48.216;12.396;2023-09-19T11:51:19;26.40;48.60
70366;DHT22;57787;48.216;12.396;2023-09-19T11:53:50;25.40;51.70
70366;DHT22;57787;48.216;12.396;2023-09-19T11:56:18;24.60;54.60
70366;DHT22;57787;48.216;12.396;2023-09-19T11:59:05;24.00;57.10
70366;DHT22;57787;48.216;12.396;2023-09-19T12:01:35;23.40;59.60
70366;DHT22;57787;48.216;12.396;2023-09-19T12:04:04;22.90;60.70
70366;DHT22;57787;48.216;12.396;2023-09-19T12:06:31;22.40;62.40
70366;DHT22;57787;48.216;12.396;2023-09-19T12:09:03;22.00;63.70
70366;DHT22;57787;48.216;12.396;2023-09-19T12:11:33;21.80;64.30
70366;DHT22;57787;48.216;12.396;2023-09-19T12:14:11;21.90;65.10
70366;DHT22;57787;48.216;12.396;2023-09-19T12:16:39;22.30;64.00
70366;DHT22;57787;48.216;12.396;2023-09-19T12:19:19;22.50;63.60
70366;DHT22;57787;48.216;12.396;2023-09-19T12:22:00;22.80;63.30
70366;DHT22;57787;48.216;12.396;2023-09-19T12:24:31;23.10;62.70
70366;DHT22;57787;48.216;12.396;2023-09-19T12:27:02;23.30;61.30
70366;DHT22;57787;48.216;12.396;2023-09-19T12:29:32;23.20;60.90
70366;DHT22;57787;48.216;12.396;2023-09-19T12:32:10;23.30;61.80
70366;DHT22;57787;48.216;12.396;2023-09-19T12:34:37;23.20;61.70
70366;DHT22;57787;48.216;12.396;2023-09-19T12:37:16;23.10;60.70
70366;DHT22;57787;48.216;12.396;2023-09-19T12:40:02;23.00;61.80
70366;DHT22;57787;48.216;12.396;2023-09-19T12:42:42;23.00;61.10
70366;DHT22;57787;48.216;12.396;2023-09-19T12:45:09;23.10;60.00
70366;DHT22;57787;48.216;12.396;2023-09-19T12:47:36;23.10;62.50
70366;DHT22;57787;48.216;12.396;2023-09-19T12:50:05;23.30;62.50
70366;DHT22;57787;48.216;12.396;2023-09-19T12:52:35;23.30;61.80
70366;DHT22;57787;48.216;12.396;2023-09-19T12:55:03;23.30;61.00
70366;DHT22;57787;48.216;12.396;2023-09-19T12:57:35;23.20;61.40
70366;DHT22;57787;48.216;12.396;2023-09-19T13:00:02;23.30;61.70
70366;DHT22;57787;48.216;12.396;2023-09-19T13:02:32;23.30;60.20
70366;DHT22;57787;48.216;12.396;2023-09-19T13:05:00;23.20;60.30
70366;DHT22;57787;48.216;12.396;2023-09-19T13:07:40;23.20;60.50
70366;DHT22;57787;48.216;12.396;2023-09-19T13:10:11;23.30;60.00
70366;DHT22;57787;48.216;12.396;2023-09-19T13:12:43;23.20;59.60
70366;DHT22;57787;48.216;12.396;2023-09-19T13:15:15;22.80;61.30
70366;DHT22;57787;48.216;12.396;2023-09-19T13:17:48;22.80;62.10
70366;DHT22;57787;48.216;12.396;2023-09-19T13:20:25;22.80;61.00
70366;DHT22;57787;48.216;12.396;2023-09-19T13:22:54;23.00;61.40
70366;DHT22;57787;48.216;12.396;2023-09-19T13:25:25;23.00;62.40
70366;DHT22;57787;48.216;12.396;2023-09-19T13:27:57;23.10;60.60
70366;DHT22;57787;48.216;12.396;2023-09-19T13:30:27;23.00;59.90
70366;DHT22;57787;48.216;12.396;2023-09-19T13:33:33;22.90;61.10
70366;DHT22;57787;48.216;12.396;2023-09-19T13:35:53;22.80;60.80
70366;DHT22;57787;48.216;12.396;2023-09-19T13:38:20;22.80;60.90
70366;DHT22;57787;48.216;12.396;2023-09-19T13:40:48;22.80;61.60
70366;DHT22;57787;48.216;12.396;2023-09-19T13:43:19;22.80;60.60
70366;DHT22;57787;48.216;12.396;2023-09-19T13:45:48;22.90;60.80
70366;DHT22;57787;48.216;12.396;2023-09-19T13:48:16;23.00;61.60
70366;DHT22;57787;48.216;12.396;2023-09-19T13:50:46;23.10;59.30
70366;DHT22;57787;48.216;12.396;2023-09-19T13:53:14;23.20;59.00
70366;DHT22;57787;48.216;12.396;2023-09-19T13:55:41;23.40;60.10
70366;DHT22;57787;48.216;12.396;2023-09-19T13:58:08;23.50;58.40
70366;DHT22;57787;48.216;12.396;2023-09-19T14:00:37;23.60;60.50
70366;DHT22;57787;48.216;12.396;2023-09-19T14:03:05;23.50;57.20
70366;DHT22;57787;48.216;12.396;2023-09-19T14:05:32;23.60;58.70
70366;DHT22;57787;48.216;12.396;2023-09-19T14:08:04;23.60;56.90
70366;DHT22;57787;48.216;12.396;2023-09-19T14:10:33;23.50;58.40
70366;DHT22;57787;48.216;12.396;2023-09-19T14:13:01;23.30;58.00
70366;DHT22;57787;48.216;12.396;2023-09-19T14:15:28;23.30;59.60
70366;DHT22;57787;48.216;12.396;2023-09-19T14:17:59;23.30;59.40
70366;DHT22;57787;48.216;12.396;2023-09-19T14:20:27;23.40;58.60
70366;DHT22;57787;48.216;12.396;2023-09-19T14:22:54;23.50;59.30
70366;DHT22;57787;48.216;12.396;2023-09-19T14:25:21;23.50;58.10
70366;DHT22;57787;48.216;12.396;2023-09-19T14:27:50;23.40;58.10
70366;DHT22;57787;48.216;12.396;2023-09-19T14:30:19;23.30;58.50
70366;DHT22;57787;48.216;12.396;2023-09-19T14:32:47;23.40;60.10
70366;DHT22;57787;48.216;12.396;2023-09-19T14:35:14;23.50;59.90
70366;DHT22;57787;48.216;12.396;2023-09-19T14:37:41;23.60;60.00
70366;DHT22;57787;48.216;12.396;2023-09-19T14:40:09;23.30;60.60
70366;DHT22;57787;48.216;12.396;2023-09-19T14:42:39;23.30;60.50
70366;DHT22;57787;48.216;12.396;2023-09-19T14:45:07;23.20;60.20
70366;DHT22;57787;48.216;12.396;2023-09-19T14:47:34;23.10;61.20
70366;DHT22;57787;48.216;12.396;2023-09-19T14:50:02;23.00;61.10
70366;DHT22;57787;48.216;12.396;2023-09-19T14:52:33;22.90;61.60
70366;DHT22;57787;48.216;12.396;2023-09-19T14:55:00;22.80;61.00
70366;DHT22;57787;48.216;12.396;2023-09-19T14:57:28;22.80;62.00
70366;DHT22;57787;48.216;12.396;2023-09-19T14:59:56;22.80;61.50
70366;DHT22;57787;48.216;12.396;2023-09-19T15:02:23;22.80;61.80
70366;DHT22;57787;48.216;12.396;2023-09-19T15:04:53;22.80;61.80
70366;DHT22;57787;48.216;12.396;2023-09-19T15:07:20;22.80;61.50
70366;DHT22;57787;48.216;12.396;2023-09-19T15:09:47;22.70;61.70
70366;DHT22;57787;48.216;12.396;2023-09-19T15:12:16;22.60;62.20
70366;DHT22;57787;48.216;12.396;2023-09-19T15:14:43;22.60;62.80
70366;DHT22;57787;48.216;12.396;2023-09-19T15:17:11;22.40;62.40
70366;DHT22;57787;48.216;12.396;2023-09-19T15:19:38;22.40;63.50
70366;DHT22;57787;48.216;12.396;2023-09-19T15:22:05;22.30;63.50
70366;DHT22;57787;48.216;12.396;2023-09-19T15:24:32;22.30;63.30
70366;DHT22;57787;48.216;12.396;2023-09-19T15:26:59;22.20;63.40
70366;DHT22;57787;48.216;12.396;2023-09-19T15:29:26;22.10;64.10
70366;DHT22;57787;48.216;12.396;2023-09-19T15:31:54;22.10;64.90
70366;DHT22;57787;48.216;12.396;2023-09-19T15:34:21;22.00;64.30
70366;DHT22;57787;48.216;12.396;2023-09-19T15:36:48;21.90;65.10
70366;DHT22;57787;48.216;12.396;2023-09-19T15:39:17;21.80;64.50
70366;DHT22;57787;48.216;12.396;2023-09-19T15:41:44;21.80;65.20
70366;DHT22;57787;48.216;12.396;2023-09-19T15:44:22;21.70;65.30
70366;DHT22;57787;48.216;12.396;2023-09-19T15:46:52;21.60;65.30
70366;DHT22;57787;48.216;12.396;2023-09-19T15:49:22;21.50;65.50
70366;DHT22;57787;48.216;12.396;2023-09-19T15:51:50;21.40;65.80
70366;DHT22;57787;48.216;12.396;2023-09-19T15:54:16;21.30;65.80
70366;DHT22;57787;48.216;12.396;2023-09-19T15:56:45;21.30;66.00
70366;DHT22;57787;48.216;12.396;2023-09-19T15:59:12;21.20;65.70
70366;DHT22;57787;48.216;12.396;2023-09-19T16:15:15;20.50;69.00
70366;DHT22;57787;48.216;12.396;2023-09-19T16:17:43;20.30;68.60
70366;DHT22;57787;48.216;12.396;2023-09-19T16:22:50;20.10;69.70
70366;DHT22;57787;48.216;12.396;2023-09-19T16:25:24;20.00;70.30
70366;DHT22;57787;48.216;12.396;2023-09-19T16:27:51;19.90;70.60
70366;DHT22;57787;48.216;12.396;2023-09-19T16:30:17;19.80;70.90
70366;DHT22;57787;48.216;12.396;2023-09-19T16:32:49;19.70;71.60